Time;durP1;ratioP1;P1;durP2;ratioP2;P2;SDS_P1;SDS_P2;PMS_P1;PMS_P2;Temp;Humidity;BMP_temperature;BMP_pressure;BME280_temperature;BME280_humidity;BME280_pressure;Samples;Min_cycle;Max_cycle;Signal;HPM_P1;HPM_P2
2022/06/19 00:00:09;;;;;;;62.43;5.00;;;;;;;;;;5053703;28;20462;-81
2022/06/19 00:02:37;;;;;;;61.43;4.63;;;;;;;;;;5054669;28;20506;-81
2022/06/19 00:05:05;;;;;;;63.40;4.60;;;;;;;;;;5056569;28;20456;-82
2022/06/19 00:07:32;;;;;;;64.07;4.00;;;;;;;;;;5056415;28;20435;-81
2022/06/19 00:10:00;;;;;;;61.57;4.53;;;;;;;;;;5056834;28;20457;-82
2022/06/19 00:12:29;;;;;;;61.83;4.70;;;;;;;;;;5057193;28;20511;-81
2022/06/19 00:14:56;;;;;;;65.50;4.80;;;;;;;;;;5055209;28;21179;-81
2022/06/19 00:17:24;;;;;;;60.17;3.50;;;;;;;;;;5057850;28;20461;-81
2022/06/19 00:19:51;;;;;;;60.13;4.10;;;;;;;;;;5058546;28;20922;-80
2022/06/19 00:22:18;;;;;;;62.03;4.70;;;;;;;;;;5058374;28;20438;-81
2022/06/19 00:24:45;;;;;;;66.43;5.30;;;;;;;;;;5058472;28;20449;-82
2022/06/19 00:27:13;;;;;;;63.07;4.63;;;;;;;;;;5055912;28;20459;-81
2022/06/19 00:29:41;;;;;;;61.30;4.20;;;;;;;;;;5055761;28;20434;-81
2022/06/19 00:32:09;;;;;;;67.23;4.50;;;;;;;;;;5056027;28;20446;-81
2022/06/19 00:34:36;;;;;;;65.30;4.83;;;;;;;;;;5055872;28;20561;-81
2022/06/19 00:37:04;;;;;;;64.93;4.20;;;;;;;;;;5056081;28;20456;-81
2022/06/19 00:39:32;;;;;;;61.33;4.20;;;;;;;;;;5055606;28;20447;-81
2022/06/19 00:42:00;;;;;;;63.80;4.67;;;;;;;;;;5056097;28;20533;-81
2022/06/19 00:44:27;;;;;;;62.90;4.90;;;;;;;;;;5056229;28;20535;-81
2022/06/19 00:47:09;;;;;;;62.20;4.70;;;;;;;;;;5053336;28;20857;-81
2022/06/19 00:49:37;;;;;;;63.87;4.03;;;;;;;;;;5056778;28;20569;-81
2022/06/19 00:52:06;;;;;;;67.83;5.03;;;;;;;;;;5056837;28;20824;-80
2022/06/19 00:54:35;;;;;;;63.30;5.07;;;;;;;;;;5056241;28;20484;-80
2022/06/19 00:57:03;;;;;;;63.00;5.00;;;;;;;;;;5056975;28;20446;-82
2022/06/19 00:59:31;;;;;;;63.03;4.80;;;;;;;;;;5056762;28;20993;-81
2022/06/19 01:02:00;;;;;;;63.13;4.17;;;;;;;;;;5057032;28;20513;-80
2022/06/19 01:04:31;;;;;;;61.23;4.20;;;;;;;;;;5076256;28;20451;-82
2022/06/19 01:06:58;;;;;;;62.70;4.57;;;;;;;;;;5076300;28;20499;-81
2022/06/19 01:09:25;;;;;;;61.20;4.53;;;;;;;;;;5075791;28;20444;-81
2022/06/19 01:11:53;;;;;;;60.60;4.10;;;;;;;;;;5075880;28;20452;-81
2022/06/19 01:14:22;;;;;;;71.20;4.77;;;;;;;;;;5076657;28;20540;-82
2022/06/19 01:16:49;;;;;;;60.90;4.30;;;;;;;;;;5076714;28;20453;-81
2022/06/19 01:19:21;;;;;;;66.50;5.03;;;;;;;;;;5060674;28;20449;-81
2022/06/19 01:21:51;;;;;;;60.63;3.90;;;;;;;;;;5058881;28;20909;-81
2022/06/19 01:24:22;;;;;;;63.87;5.50;;;;;;;;;;5060430;28;20441;-81
2022/06/19 01:26:53;;;;;;;64.77;4.20;;;;;;;;;;5060787;28;20443;-80
2022/06/19 01:29:20;;;;;;;62.33;4.77;;;;;;;;;;5060942;28;20433;-80
2022/06/19 01:31:48;;;;;;;60.77;4.50;;;;;;;;;;5060896;28;20460;-80
2022/06/19 01:34:28;;;;;;;64.47;4.70;;;;;;;;;;5060485;28;20480;-80
2022/06/19 01:36:57;;;;;;;60.87;4.50;;;;;;;;;;5060009;28;20526;-81
2022/06/19 01:39:24;;;;;;;61.83;4.30;;;;;;;;;;5060354;28;20493;-80
2022/06/19 01:41:53;;;;;;;60.80;4.63;;;;;;;;;;5059578;28;20528;-81
2022/06/19 01:44:20;;;;;;;60.17;4.40;;;;;;;;;;5059267;28;20448;-79
2022/06/19 01:46:48;;;;;;;61.70;4.40;;;;;;;;;;5059856;28;20498;-80
2022/06/19 01:49:16;;;;;;;61.57;4.40;;;;;;;;;;5059707;28;20420;-81
2022/06/19 01:51:43;;;;;;;63.90;4.73;;;;;;;;;;5055595;28;20456;-81
2022/06/19 01:54:14;;;;;;;61.77;4.90;;;;;;;;;;5059597;28;20526;-81
2022/06/19 01:56:42;;;;;;;61.53;4.50;;;;;;;;;;5060069;28;20488;-80
2022/06/19 01:59:12;;;;;;;61.47;5.27;;;;;;;;;;5059712;28;20444;-81
2022/06/19 02:01:39;;;;;;;61.47;4.60;;;;;;;;;;5074009;28;20476;-81
2022/06/19 02:04:07;;;;;;;61.07;4.40;;;;;;;;;;5080086;28;20436;-81
2022/06/19 02:06:38;;;;;;;62.83;5.00;;;;;;;;;;5079663;28;20455;-80
2022/06/19 02:09:06;;;;;;;61.27;4.33;;;;;;;;;;5079369;28;20484;-81
2022/06/19 02:11:34;;;;;;;64.10;4.57;;;;;;;;;;5079605;28;20482;-81
2022/06/19 02:14:02;;;;;;;63.67;5.20;;;;;;;;;;5079624;28;21059;-81
2022/06/19 02:16:31;;;;;;;61.37;5.00;;;;;;;;;;5078929;28;20849;-81
2022/06/19 02:18:58;;;;;;;60.40;5.00;;;;;;;;;;5079711;28;20501;-81
2022/06/19 02:21:35;;;;;;;60.10;4.07;;;;;;;;;;5079442;28;20465;-80
2022/06/19 02:24:03;;;;;;;61.67;4.33;;;;;;;;;;5049345;28;20443;-81
2022/06/19 02:26:31;;;;;;;61.17;4.60;;;;;;;;;;5039436;28;20808;-81
2022/06/19 02:28:58;;;;;;;64.70;5.00;;;;;;;;;;5039050;28;20442;-81
2022/06/19 02:31:25;;;;;;;64.50;4.80;;;;;;;;;;5039540;28;20469;-81
2022/06/19 02:33:56;;;;;;;65.90;4.87;;;;;;;;;;5039629;28;20539;-81
2022/06/19 02:36:34;;;;;;;62.07;4.67;;;;;;;;;;5039019;28;20425;-81
2022/06/19 02:39:02;;;;;;;64.17;4.80;;;;;;;;;;5038497;28;20547;-80
2022/06/19 02:41:32;;;;;;;67.93;5.40;;;;;;;;;;5039271;28;20473;-81
2022/06/19 02:44:01;;;;;;;61.77;4.83;;;;;;;;;;5039939;28;20969;-82
2022/06/19 02:46:28;;;;;;;61.73;4.60;;;;;;;;;;5039221;28;20480;-81
2022/06/19 02:48:57;;;;;;;61.30;4.63;;;;;;;;;;5039885;28;20446;-80
2022/06/19 02:51:24;;;;;;;60.87;4.30;;;;;;;;;;5039496;28;20534;-80
2022/06/19 02:53:51;;;;;;;62.43;4.60;;;;;;;;;;5039534;28;20456;-80
2022/06/19 02:56:18;;;;;;;62.57;4.63;;;;;;;;;;5052377;28;20449;-81
2022/06/19 02:58:46;;;;;;;61.97;4.40;;;;;;;;;;5058743;28;20430;-81
2022/06/19 03:01:15;;;;;;;63.20;4.30;;;;;;;;;;5059371;28;20472;-81
2022/06/19 03:03:42;;;;;;;63.43;5.07;;;;;;;;;;5058879;28;20451;-81
2022/06/19 03:06:11;;;;;;;60.77;5.20;;;;;;;;;;5059206;28;20450;-81
2022/06/19 03:08:38;;;;;;;62.70;4.80;;;;;;;;;;5056041;28;20436;-82
2022/06/19 03:11:05;;;;;;;60.87;4.87;;;;;;;;;;5054189;28;20480;-82
2022/06/19 03:13:33;;;;;;;62.13;4.90;;;;;;;;;;5054614;28;20433;-82
2022/06/19 03:16:02;;;;;;;63.47;5.40;;;;;;;;;;5055502;28;20522;-84
2022/06/19 03:18:29;;;;;;;61.20;4.73;;;;;;;;;;5055736;28;20451;-82
2022/06/19 03:20:56;;;;;;;61.70;5.40;;;;;;;;;;5055836;28;20830;-82
2022/06/19 03:23:25;;;;;;;64.10;6.10;;;;;;;;;;5056301;28;21169;-82
2022/06/19 03:25:53;;;;;;;63.60;4.53;;;;;;;;;;5056963;28;20456;-82
2022/06/19 03:28:20;;;;;;;60.10;4.50;;;;;;;;;;5054334;28;20514;-82
2022/06/19 03:30:47;;;;;;;61.23;5.03;;;;;;;;;;5056717;28;20940;-83
2022/06/19 03:33:14;;;;;;;60.40;4.53;;;;;;;;;;5056527;28;20440;-83
2022/06/19 03:35:42;;;;;;;61.27;4.73;;;;;;;;;;5056511;28;21032;-82
2022/06/19 03:38:09;;;;;;;62.90;6.07;;;;;;;;;;5056789;28;20454;-83
2022/06/19 03:40:38;;;;;;;60.67;4.57;;;;;;;;;;5056933;28;20479;-82
2022/06/19 03:43:05;;;;;;;60.90;4.50;;;;;;;;;;5056467;28;20445;-82
2022/06/19 03:45:32;;;;;;;66.50;5.53;;;;;;;;;;5057267;28;20502;-82
2022/06/19 03:48:00;;;;;;;60.63;4.27;;;;;;;;;;5057360;28;20468;-82
2022/06/19 03:50:27;;;;;;;61.00;4.50;;;;;;;;;;5057215;28;20824;-83
2022/06/19 03:52:54;;;;;;;59.57;4.27;;;;;;;;;;5056874;28;20799;-82
2022/06/19 03:55:22;;;;;;;62.17;4.17;;;;;;;;;;5056871;28;20640;-84
2022/06/19 03:57:50;;;;;;;61.10;4.40;;;;;;;;;;5056846;28;20458;-83
2022/06/19 04:00:19;;;;;;;60.80;4.10;;;;;;;;;;5056653;28;20461;-83
2022/06/19 04:02:46;;;;;;;60.27;4.30;;;;;;;;;;5058926;28;21086;-83
2022/06/19 04:05:13;;;;;;;64.90;5.37;;;;;;;;;;5059339;28;21079;-83
2022/06/19 04:07:45;;;;;;;60.57;4.10;;;;;;;;;;5059495;28;20446;-83
2022/06/19 04:10:12;;;;;;;63.10;4.80;;;;;;;;;;5058667;28;20480;-82
2022/06/19 04:12:39;;;;;;;60.40;3.77;;;;;;;;;;5059250;28;20444;-83
2022/06/19 04:15:09;;;;;;;60.90;4.23;;;;;;;;;;5070382;28;20487;-82
2022/06/19 04:17:37;;;;;;;61.17;4.20;;;;;;;;;;5069321;28;20510;-83
2022/06/19 04:20:04;;;;;;;62.13;4.87;;;;;;;;;;5061864;28;20814;-83
2022/06/19 04:22:31;;;;;;;61.47;4.47;;;;;;;;;;5059366;28;20441;-82
2022/06/19 04:24:59;;;;;;;61.30;4.40;;;;;;;;;;5053153;28;20519;-82
2022/06/19 04:27:26;;;;;;;62.83;4.53;;;;;;;;;;5053422;28;20536;-82
2022/06/19 04:29:53;;;;;;;60.53;4.03;;;;;;;;;;5052077;28;20515;-82
2022/06/19 04:32:22;;;;;;;62.83;3.97;;;;;;;;;;5055709;28;20493;-83
2022/06/19 04:34:49;;;;;;;60.20;3.97;;;;;;;;;;5056383;28;20545;-83
2022/06/19 04:37:16;;;;;;;62.07;4.23;;;;;;;;;;5057394;28;20456;-83
2022/06/19 04:39:44;;;;;;;59.63;4.00;;;;;;;;;;5057234;28;20448;-82
2022/06/19 04:42:11;;;;;;;61.27;3.57;;;;;;;;;;5055901;28;20441;-83
2022/06/19 04:44:38;;;;;;;59.90;3.83;;;;;;;;;;5056985;28;20447;-84
2022/06/19 04:47:06;;;;;;;61.03;4.47;;;;;;;;;;5055296;28;20450;-83
2022/06/19 04:49:35;;;;;;;63.00;4.30;;;;;;;;;;5056009;28;20947;-83
2022/06/19 04:52:02;;;;;;;62.30;4.10;;;;;;;;;;5054681;28;20443;-82
2022/06/19 04:54:29;;;;;;;63.10;4.00;;;;;;;;;;5054747;28;20963;-83
2022/06/19 04:56:56;;;;;;;59.40;4.30;;;;;;;;;;5054586;28;20858;-83
2022/06/19 04:59:24;;;;;;;60.60;4.20;;;;;;;;;;5055020;28;20850;-84
2022/06/19 05:01:51;;;;;;;61.30;3.67;;;;;;;;;;5052698;28;20484;-84
2022/06/19 05:04:18;;;;;;;62.10;3.80;;;;;;;;;;5055422;28;20449;-82
2022/06/19 05:06:47;;;;;;;60.30;4.00;;;;;;;;;;5055274;28;20444;-82
2022/06/19 05:09:14;;;;;;;61.67;3.80;;;;;;;;;;5055941;28;20493;-83
2022/06/19 05:11:42;;;;;;;64.40;4.50;;;;;;;;;;5055883;28;20467;-83
2022/06/19 05:14:09;;;;;;;60.63;4.10;;;;;;;;;;5055408;28;20461;-82
2022/06/19 05:16:36;;;;;;;61.80;4.00;;;;;;;;;;5055978;28;20485;-83
2022/06/19 05:19:04;;;;;;;60.13;3.90;;;;;;;;;;5055728;28;21007;-84
2022/06/19 05:21:32;;;;;;;66.63;4.50;;;;;;;;;;5056384;28;20466;-83
2022/06/19 05:24:00;;;;;;;64.37;3.80;;;;;;;;;;5056651;28;20442;-83
2022/06/19 05:26:29;;;;;;;63.80;4.70;;;;;;;;;;5056480;28;20497;-83
2022/06/19 05:28:56;;;;;;;60.20;3.43;;;;;;;;;;5056607;28;20449;-83
2022/06/19 05:31:24;;;;;;;60.80;4.30;;;;;;;;;;5056308;28;20487;-83
2022/06/19 05:33:51;;;;;;;63.53;3.87;;;;;;;;;;5047681;28;20496;-83
2022/06/19 05:36:18;;;;;;;60.97;4.50;;;;;;;;;;5036692;28;20476;-83
2022/06/19 05:38:46;;;;;;;60.60;3.47;;;;;;;;;;5035965;28;20460;-83
2022/06/19 05:41:14;;;;;;;65.33;4.03;;;;;;;;;;5036812;28;20468;-83
2022/06/19 05:43:42;;;;;;;59.90;3.97;;;;;;;;;;5035982;28;20437;-84
2022/06/19 05:46:14;;;;;;;61.10;3.50;;;;;;;;;;5036693;28;20850;-83
2022/06/19 05:48:41;;;;;;;63.03;4.20;;;;;;;;;;5036081;28;20441;-83
2022/06/19 05:51:09;;;;;;;63.40;4.03;;;;;;;;;;5036617;28;20825;-83
2022/06/19 05:53:38;;;;;;;59.97;4.00;;;;;;;;;;5037205;28;20442;-84
2022/06/19 05:56:06;;;;;;;62.87;4.37;;;;;;;;;;5036488;28;20592;-84
2022/06/19 05:58:35;;;;;;;61.37;4.30;;;;;;;;;;5036396;28;20433;-83
2022/06/19 06:01:03;;;;;;;61.37;4.53;;;;;;;;;;5036766;28;20453;-83
2022/06/19 06:03:30;;;;;;;61.30;3.67;;;;;;;;;;5037156;28;20511;-84
2022/06/19 06:06:00;;;;;;;60.50;3.50;;;;;;;;;;5047146;28;20505;-83
2022/06/19 06:08:28;;;;;;;60.40;4.40;;;;;;;;;;5060452;28;20462;-83
2022/06/19 06:10:55;;;;;;;62.40;4.77;;;;;;;;;;5060272;28;20476;-83
2022/06/19 06:13:23;;;;;;;65.37;3.60;;;;;;;;;;5061668;28;20855;-85
2022/06/19 06:15:51;;;;;;;62.10;4.10;;;;;;;;;;5060326;28;20472;-83
2022/06/19 06:18:18;;;;;;;60.20;4.10;;;;;;;;;;5060643;28;20452;-84
2022/06/19 06:20:46;;;;;;;59.10;3.53;;;;;;;;;;5061137;28;20482;-83
2022/06/19 06:23:13;;;;;;;60.87;3.63;;;;;;;;;;5061200;28;21025;-82
2022/06/19 06:25:42;;;;;;;64.03;3.40;;;;;;;;;;5060803;28;20959;-81
2022/06/19 06:28:09;;;;;;;64.10;4.53;;;;;;;;;;5060208;28;20440;-81
2022/06/19 06:30:37;;;;;;;58.60;3.30;;;;;;;;;;5060744;28;20448;-80
2022/06/19 06:33:05;;;;;;;62.47;3.70;;;;;;;;;;5060626;28;20437;-81
2022/06/19 06:35:33;;;;;;;61.27;3.93;;;;;;;;;;5060216;28;20838;-81
2022/06/19 06:38:01;;;;;;;62.07;3.90;;;;;;;;;;5058630;28;20950;-82
2022/06/19 06:40:28;;;;;;;62.50;3.93;;;;;;;;;;5061434;28;20460;-81
2022/06/19 06:42:55;;;;;;;60.63;3.33;;;;;;;;;;5061947;28;20444;-81
2022/06/19 06:45:23;;;;;;;64.80;3.60;;;;;;;;;;5058936;28;20440;-81
2022/06/19 06:47:50;;;;;;;62.27;3.60;;;;;;;;;;5060452;28;20939;-82
2022/06/19 06:50:19;;;;;;;65.73;3.60;;;;;;;;;;5060668;28;20878;-85
2022/06/19 06:52:47;;;;;;;60.60;4.00;;;;;;;;;;5061210;28;20942;-83
2022/06/19 06:55:14;;;;;;;60.97;3.63;;;;;;;;;;5060162;28;20456;-83
2022/06/19 06:57:42;;;;;;;61.57;4.50;;;;;;;;;;5060119;28;20433;-83
2022/06/19 07:00:18;;;;;;;64.73;4.63;;;;;;;;;;5060913;28;20478;-83
2022/06/19 07:02:45;;;;;;;59.37;3.33;;;;;;;;;;5060593;28;20435;-82
2022/06/19 07:05:13;;;;;;;65.70;3.30;;;;;;;;;;5060648;28;20438;-84
2022/06/19 07:07:41;;;;;;;61.17;4.17;;;;;;;;;;5059584;28;20449;-84
2022/06/19 07:10:09;;;;;;;64.80;3.83;;;;;;;;;;5056451;28;21055;-85
2022/06/19 07:12:36;;;;;;;60.07;3.87;;;;;;;;;;5061952;28;20459;-84
2022/06/19 07:15:04;;;;;;;60.57;3.33;;;;;;;;;;5059724;28;20456;-83
2022/06/19 07:17:31;;;;;;;61.80;3.50;;;;;;;;;;5060561;28;20455;-83
2022/06/19 07:19:59;;;;;;;60.00;3.80;;;;;;;;;;5059937;28;20522;-84
2022/06/19 07:22:27;;;;;;;60.27;3.80;;;;;;;;;;5060357;28;20946;-82
2022/06/19 07:24:56;;;;;;;61.67;3.47;;;;;;;;;;5060478;28;20449;-83
2022/06/19 07:27:24;;;;;;;60.90;3.83;;;;;;;;;;5060520;28;20441;-82
2022/06/19 07:29:51;;;;;;;63.07;4.27;;;;;;;;;;5059434;28;20452;-82
2022/06/19 07:32:18;;;;;;;61.97;3.90;;;;;;;;;;5060447;28;20859;-82
2022/06/19 07:34:46;;;;;;;63.37;4.20;;;;;;;;;;5060292;28;20425;-82
2022/06/19 07:37:14;;;;;;;63.00;3.87;;;;;;;;;;5060836;28;20483;-83
2022/06/19 07:39:41;;;;;;;58.80;3.10;;;;;;;;;;5057912;28;20491;-81
2022/06/19 07:42:10;;;;;;;61.27;3.40;;;;;;;;;;5059275;28;20535;-80
2022/06/19 07:44:38;;;;;;;62.27;3.60;;;;;;;;;;5054975;28;20846;-80
2022/06/19 07:52:35;;;;;;;59.67;3.53;;;;;;;;;;5054922;28;20890;-80
2022/06/19 07:55:03;;;;;;;62.33;4.40;;;;;;;;;;5055013;28;20456;-80
2022/06/19 07:57:31;;;;;;;61.50;4.10;;;;;;;;;;5055143;28;20561;-80
2022/06/19 07:59:59;;;;;;;60.90;4.40;;;;;;;;;;5054584;28;20464;-80
2022/06/19 08:02:26;;;;;;;61.90;4.33;;;;;;;;;;5053605;28;20441;-80
2022/06/19 08:04:53;;;;;;;63.93;5.00;;;;;;;;;;5053859;28;20494;-81
2022/06/19 08:07:21;;;;;;;63.37;4.80;;;;;;;;;;5053786;28;20506;-81
2022/06/19 08:09:48;;;;;;;64.33;4.10;;;;;;;;;;5053560;28;20483;-81
2022/06/19 08:12:15;;;;;;;65.87;4.57;;;;;;;;;;5050009;28;20445;-81
2022/06/19 08:14:44;;;;;;;61.50;4.07;;;;;;;;;;5054180;28;20804;-81
2022/06/19 08:17:11;;;;;;;61.63;3.80;;;;;;;;;;5052442;28;20487;-81
2022/06/19 08:19:39;;;;;;;62.27;4.10;;;;;;;;;;5053480;28;20452;-81
2022/06/19 08:22:06;;;;;;;60.20;4.50;;;;;;;;;;5055576;28;20452;-81
2022/06/19 08:24:33;;;;;;;61.80;4.00;;;;;;;;;;5053089;28;20486;-81
2022/06/19 08:27:01;;;;;;;61.93;4.00;;;;;;;;;;5052750;28;20468;-81
2022/06/19 08:29:28;;;;;;;60.67;6.10;;;;;;;;;;5052733;28;20935;-82
2022/06/19 08:31:57;;;;;;;62.43;4.90;;;;;;;;;;5053855;28;20989;-81
2022/06/19 08:34:26;;;;;;;63.07;5.03;;;;;;;;;;5052466;28;20490;-81
2022/06/19 08:36:53;;;;;;;63.97;5.53;;;;;;;;;;5053085;28;20504;-82
2022/06/19 08:39:21;;;;;;;66.40;5.03;;;;;;;;;;5054669;28;20444;-79
2022/06/19 08:41:54;;;;;;;60.90;4.43;;;;;;;;;;5051206;28;20483;-81
2022/06/19 08:44:39;;;;;;;61.30;5.20;;;;;;;;;;5041973;28;20426;-80
2022/06/19 08:47:18;;;;;;;63.83;4.80;;;;;;;;;;5036324;28;20437;-81
2022/06/19 08:49:51;;;;;;;60.00;4.70;;;;;;;;;;5039211;28;20456;-81
2022/06/19 08:52:24;;;;;;;61.97;4.73;;;;;;;;;;5039396;28;20468;-81
2022/06/19 08:54:56;;;;;;;61.53;4.50;;;;;;;;;;5036446;28;20491;-81
2022/06/19 08:57:28;;;;;;;66.13;5.20;;;;;;;;;;5033675;28;20468;-80
2022/06/19 09:00:00;;;;;;;62.23;5.17;;;;;;;;;;5033004;28;20507;-80
2022/06/19 09:02:33;;;;;;;60.10;4.70;;;;;;;;;;5032417;28;20445;-82
2022/06/19 09:07:58;;;;;;;61.60;5.27;;;;;;;;;;5032130;28;20947;-81
2022/06/19 09:10:31;;;;;;;59.83;4.33;;;;;;;;;;5031678;28;20461;-82
2022/06/19 09:13:09;;;;;;;61.00;4.67;;;;;;;;;;5034517;28;20444;-82
2022/06/19 09:15:39;;;;;;;63.00;6.50;;;;;;;;;;5054393;28;20447;-82
2022/06/19 09:18:14;;;;;;;67.30;5.83;;;;;;;;;;5052329;28;20978;-81
2022/06/19 09:20:44;;;;;;;59.97;4.43;;;;;;;;;;5053582;28;20530;-81
2022/06/19 09:23:21;;;;;;;63.17;4.57;;;;;;;;;;5053544;28;20567;-81
2022/06/19 09:25:54;;;;;;;60.67;4.70;;;;;;;;;;5054373;28;20421;-81
2022/06/19 09:28:25;;;;;;;61.50;4.97;;;;;;;;;;5053030;28;20421;-82
2022/06/19 09:30:56;;;;;;;63.40;4.77;;;;;;;;;;5054308;28;20507;-81
2022/06/19 09:33:28;;;;;;;60.20;5.10;;;;;;;;;;5055637;28;20420;-81
2022/06/19 09:35:58;;;;;;;61.27;5.37;;;;;;;;;;5056721;28;21076;-81
2022/06/19 09:38:29;;;;;;;63.87;5.37;;;;;;;;;;5051373;28;20881;-82
2022/06/19 09:40:59;;;;;;;60.43;4.40;;;;;;;;;;5052308;28;20525;-82
2022/06/19 09:43:29;;;;;;;62.03;5.07;;;;;;;;;;5056193;28;20895;-83
2022/06/19 09:45:58;;;;;;;64.87;5.90;;;;;;;;;;5053862;28;20526;-82
2022/06/19 09:48:28;;;;;;;62.27;5.10;;;;;;;;;;5055845;28;20844;-82
2022/06/19 09:51:00;;;;;;;60.17;4.77;;;;;;;;;;5055706;28;20525;-81
2022/06/19 09:53:32;;;;;;;59.80;4.57;;;;;;;;;;5055912;28;20428;-83
2022/06/19 09:56:01;;;;;;;63.50;4.40;;;;;;;;;;5058103;28;20832;-80
2022/06/19 09:58:31;;;;;;;61.83;4.40;;;;;;;;;;5056697;28;20440;-83
2022/06/19 10:00:59;;;;;;;61.17;4.23;;;;;;;;;;5057002;28;20549;-83
2022/06/19 10:03:30;;;;;;;64.30;5.10;;;;;;;;;;5057206;28;20439;-80
2022/06/19 10:05:59;;;;;;;72.50;5.00;;;;;;;;;;5056581;28;20756;-80
2022/06/19 10:08:28;;;;;;;60.80;4.70;;;;;;;;;;5056962;28;20856;-82
2022/06/19 10:10:59;;;;;;;61.90;5.30;;;;;;;;;;5057211;28;20506;-82
2022/06/19 10:13:31;;;;;;;63.57;5.20;;;;;;;;;;5060145;28;20502;-79
2022/06/19 10:16:00;;;;;;;62.33;4.90;;;;;;;;;;5055799;28;20447;-82
2022/06/19 10:18:33;;;;;;;61.70;4.27;;;;;;;;;;5057056;28;20440;-80
2022/06/19 10:21:03;;;;;;;60.57;4.57;;;;;;;;;;5057504;28;20440;-84
2022/06/19 10:23:35;;;;;;;61.57;4.73;;;;;;;;;;5058269;28;20490;-82
2022/06/19 10:26:09;;;;;;;59.60;3.83;;;;;;;;;;5059392;28;20437;-82
2022/06/19 10:28:59;;;;;;;60.60;4.53;;;;;;;;;;5060913;28;20423;-80
2022/06/19 10:31:31;;;;;;;69.10;7.27;;;;;;;;;;5059478;28;20581;-81
2022/06/19 10:34:05;;;;;;;62.37;4.90;;;;;;;;;;5058138;28;20437;-79
2022/06/19 10:36:35;;;;;;;60.60;4.63;;;;;;;;;;5061972;28;20562;-82
2022/06/19 10:39:07;;;;;;;63.40;4.00;;;;;;;;;;5061138;28;20463;-83
2022/06/19 10:44:28;;;;;;;61.50;4.70;;;;;;;;;;5059082;28;20470;-80
2022/06/19 10:47:00;;;;;;;60.57;5.00;;;;;;;;;;5061303;28;20425;-79
2022/06/19 10:49:36;;;;;;;61.73;4.73;;;;;;;;;;5061973;28;20919;-81
2022/06/19 10:52:06;;;;;;;59.70;4.90;;;;;;;;;;5060860;28;20432;-81
2022/06/19 10:54:43;;;;;;;58.67;4.63;;;;;;;;;;5057236;28;20506;-82
2022/06/19 10:57:14;;;;;;;59.23;4.93;;;;;;;;;;5057840;28;20460;-83
2022/06/19 10:59:41;;;;;;;66.70;5.73;;;;;;;;;;5058567;28;20518;-82
2022/06/19 11:04:57;;;;;;;60.40;4.30;;;;;;;;;;5056724;28;20428;-81
2022/06/19 11:07:26;;;;;;;61.30;5.67;;;;;;;;;;5056140;28;20455;-82
2022/06/19 11:09:55;;;;;;;60.60;4.87;;;;;;;;;;5058436;28;20444;-81
2022/06/19 11:12:24;;;;;;;63.40;4.23;;;;;;;;;;5058722;28;20433;-80
2022/06/19 11:14:54;;;;;;;59.03;4.40;;;;;;;;;;5058717;28;20473;-82
2022/06/19 11:17:30;;;;;;;61.83;4.27;;;;;;;;;;5059136;28;20502;-80
2022/06/19 11:19:59;;;;;;;60.63;5.00;;;;;;;;;;5060438;28;20452;-81
2022/06/19 11:22:34;;;;;;;64.83;5.30;;;;;;;;;;5059359;28;20437;-81
2022/06/19 11:25:17;;;;;;;59.10;4.57;;;;;;;;;;5058331;28;20444;-81
2022/06/19 11:27:50;;;;;;;62.43;5.07;;;;;;;;;;5056239;28;20417;-82
2022/06/19 11:30:27;;;;;;;59.97;4.50;;;;;;;;;;5059099;28;20449;-81
2022/06/19 11:32:55;;;;;;;60.47;5.33;;;;;;;;;;5056946;28;20470;-82
2022/06/19 11:35:24;;;;;;;60.50;4.93;;;;;;;;;;5055234;28;20923;-82
2022/06/19 11:37:54;;;;;;;60.27;5.03;;;;;;;;;;5055579;28;20924;-82
2022/06/19 11:40:28;;;;;;;60.27;4.73;;;;;;;;;;5057462;28;20499;-82
2022/06/19 11:42:57;;;;;;;62.60;4.67;;;;;;;;;;5057779;28;20911;-80
2022/06/19 11:45:27;;;;;;;64.10;4.83;;;;;;;;;;5055977;28;20468;-82
2022/06/19 11:48:01;;;;;;;63.33;4.50;;;;;;;;;;5058375;28;20502;-81
2022/06/19 11:50:39;;;;;;;61.93;4.40;;;;;;;;;;5055944;28;20460;-82
2022/06/19 11:53:12;;;;;;;58.60;4.33;;;;;;;;;;5055814;28;20451;-81
2022/06/19 11:55:41;;;;;;;66.80;5.13;;;;;;;;;;5058349;28;20510;-82
2022/06/19 11:58:16;;;;;;;58.47;4.60;;;;;;;;;;5053981;28;20889;-82
2022/06/19 12:00:45;;;;;;;64.43;4.40;;;;;;;;;;5056037;28;20455;-82
2022/06/19 12:03:17;;;;;;;60.30;5.03;;;;;;;;;;5055894;28;20460;-82
2022/06/19 12:05:55;;;;;;;61.43;5.17;;;;;;;;;;5055962;28;20436;-82
2022/06/19 12:08:24;;;;;;;58.50;4.20;;;;;;;;;;5056173;28;20946;-81
2022/06/19 12:10:53;;;;;;;60.97;5.00;;;;;;;;;;5053819;28;20460;-83
2022/06/19 12:13:23;;;;;;;61.80;4.50;;;;;;;;;;5054600;28;20504;-83
2022/06/19 12:16:02;;;;;;;61.17;6.07;;;;;;;;;;5053403;28;20515;-82
2022/06/19 12:18:29;;;;;;;64.10;5.10;;;;;;;;;;5052950;28;20472;-82
2022/06/19 12:21:00;;;;;;;59.20;4.30;;;;;;;;;;5054399;28;20453;-81
2022/06/19 12:23:29;;;;;;;64.50;4.53;;;;;;;;;;5053897;28;20433;-82
2022/06/19 12:25:58;;;;;;;59.77;4.17;;;;;;;;;;5054026;28;20437;-81
2022/06/19 12:28:31;;;;;;;58.37;4.10;;;;;;;;;;5053953;28;20491;-82
2022/06/19 12:31:00;;;;;;;58.00;4.10;;;;;;;;;;5054659;28;20472;-83
2022/06/19 12:33:29;;;;;;;61.43;4.07;;;;;;;;;;5054497;28;20440;-83
2022/06/19 12:35:56;;;;;;;61.13;4.67;;;;;;;;;;5054888;28;20432;-82
2022/06/19 12:38:25;;;;;;;58.90;4.43;;;;;;;;;;5053187;28;20491;-82
2022/06/19 12:41:04;;;;;;;59.50;4.37;;;;;;;;;;5055311;28;21025;-81
2022/06/19 12:43:39;;;;;;;60.10;4.37;;;;;;;;;;5054243;28;20517;-82
2022/06/19 12:46:12;;;;;;;59.33;4.23;;;;;;;;;;5054548;28;20943;-82
2022/06/19 12:48:42;;;;;;;58.73;4.17;;;;;;;;;;5054156;28;20438;-81
2022/06/19 12:51:14;;;;;;;58.27;4.80;;;;;;;;;;5053979;28;20460;-83
2022/06/19 12:54:00;;;;;;;61.40;4.80;;;;;;;;;;5054360;28;20490;-82
2022/06/19 12:56:34;;;;;;;57.23;4.50;;;;;;;;;;5058020;28;20443;-83
2022/06/19 12:59:13;;;;;;;61.63;4.43;;;;;;;;;;5053179;28;20574;-83
2022/06/19 13:01:43;;;;;;;61.70;4.37;;;;;;;;;;5061709;28;20457;-81
2022/06/19 13:04:18;;;;;;;58.70;4.30;;;;;;;;;;5063596;28;20444;-79
2022/06/19 13:06:58;;;;;;;58.27;4.17;;;;;;;;;;5058000;28;20455;-83
2022/06/19 13:09:37;;;;;;;59.07;4.80;;;;;;;;;;5053424;28;20430;-82
2022/06/19 13:12:12;;;;;;;60.37;5.30;;;;;;;;;;5052296;28;20432;-83
2022/06/19 13:14:49;;;;;;;58.80;4.43;;;;;;;;;;5052153;28;20428;-83
2022/06/19 13:17:19;;;;;;;59.97;4.20;;;;;;;;;;5051172;28;20594;-83
2022/06/19 13:19:54;;;;;;;58.27;4.17;;;;;;;;;;5052123;28;20498;-83
2022/06/19 13:22:24;;;;;;;58.87;4.77;;;;;;;;;;5052278;28;20474;-83
2022/06/19 13:24:56;;;;;;;58.30;4.70;;;;;;;;;;5052153;28;20869;-84
2022/06/19 13:27:30;;;;;;;58.47;4.90;;;;;;;;;;5051530;28;20522;-83
2022/06/19 13:30:05;;;;;;;62.23;5.10;;;;;;;;;;5052087;28;20947;-83
2022/06/19 13:32:36;;;;;;;60.70;4.33;;;;;;;;;;5053526;28;20527;-82
2022/06/19 13:35:08;;;;;;;62.63;4.67;;;;;;;;;;5053195;28;20412;-81
2022/06/19 13:37:44;;;;;;;57.63;4.30;;;;;;;;;;5052933;28;20950;-84
2022/06/19 13:40:16;;;;;;;58.03;3.93;;;;;;;;;;5054954;28;20451;-81
2022/06/19 13:42:57;;;;;;;57.90;3.90;;;;;;;;;;5056864;28;20415;-81
2022/06/19 13:45:34;;;;;;;60.07;4.40;;;;;;;;;;5056107;28;20440;-81
2022/06/19 13:48:06;;;;;;;62.40;4.30;;;;;;;;;;5055433;28;20978;-80
2022/06/19 13:50:37;;;;;;;61.40;4.87;;;;;;;;;;5051878;28;20874;-83
2022/06/19 13:53:07;;;;;;;58.77;4.67;;;;;;;;;;5052237;28;20441;-83
2022/06/19 13:55:42;;;;;;;58.67;4.57;;;;;;;;;;5051949;28;20448;-84
2022/06/19 13:58:13;;;;;;;60.00;4.23;;;;;;;;;;5051764;28;20483;-83
2022/06/19 14:00:44;;;;;;;58.63;4.40;;;;;;;;;;5051500;28;20971;-83
2022/06/19 14:03:18;;;;;;;59.50;4.90;;;;;;;;;;5051609;28;20436;-83
2022/06/19 14:05:47;;;;;;;59.70;5.43;;;;;;;;;;5052013;28;20429;-83
2022/06/19 14:08:25;;;;;;;58.87;5.40;;;;;;;;;;5050845;28;20838;-83
2022/06/19 14:10:57;;;;;;;58.80;4.77;;;;;;;;;;5051528;28;20449;-84
2022/06/19 14:13:32;;;;;;;57.67;4.33;;;;;;;;;;5052066;28;20934;-83
2022/06/19 14:16:10;;;;;;;57.50;4.50;;;;;;;;;;5052076;28;20995;-84
2022/06/19 14:18:43;;;;;;;63.27;5.60;;;;;;;;;;5051718;28;20432;-83
2022/06/19 14:21:16;;;;;;;59.90;4.60;;;;;;;;;;5052260;28;20452;-83
2022/06/19 14:23:48;;;;;;;60.00;4.90;;;;;;;;;;5052057;28;20449;-83
2022/06/19 14:26:22;;;;;;;57.67;4.60;;;;;;;;;;5052301;28;20916;-84
2022/06/19 14:29:03;;;;;;;58.70;4.80;;;;;;;;;;5055283;28;20484;-83
2022/06/19 14:31:31;;;;;;;59.30;4.57;;;;;;;;;;5055121;28;20455;-81
2022/06/19 14:33:58;;;;;;;61.03;5.00;;;;;;;;;;5051783;28;20444;-82
2022/06/19 14:36:27;;;;;;;59.27;4.50;;;;;;;;;;5055453;28;20424;-84
2022/06/19 14:38:56;;;;;;;62.17;4.20;;;;;;;;;;5053122;28;20467;-83
2022/06/19 14:41:29;;;;;;;59.70;4.50;;;;;;;;;;5054721;28;20476;-82
2022/06/19 14:44:02;;;;;;;58.60;4.30;;;;;;;;;;5054369;28;20445;-81
2022/06/19 14:46:47;;;;;;;59.90;4.40;;;;;;;;;;5055595;28;20466;-84
2022/06/19 14:49:29;;;;;;;60.00;4.13;;;;;;;;;;5054056;28;20514;-83
2022/06/19 14:52:00;;;;;;;58.87;4.60;;;;;;;;;;5056517;28;20482;-81
2022/06/19 14:54:35;;;;;;;60.97;5.30;;;;;;;;;;5054592;28;20428;-84
2022/06/19 14:57:13;;;;;;;64.73;5.40;;;;;;;;;;5054126;28;20427;-83
2022/06/19 14:59:50;;;;;;;59.13;4.57;;;;;;;;;;5054409;28;20933;-82